Londyn, Wielka Brytania

02:56 BST dnia 22-sierpień-2014 (GMT +0100)
Heathrow | Change Station
CLOSE
Current Station
Lotnisko
Location: London,
n.p.m.: 79 ft
Najbliższa stacja pogodowa

Wysokość 79 ft 51.48 °N, 0.46 °W | Updated 6 minutes ago

Partly Cloudy
niewielkie zachmurzenie
55 ° F
Odczuwalna 55 ° F
Płn.
9
Wiatr zmienny Wiatr od PdZd

Dziś
Wysoka -- | Niska -- ° F
--% Prawdop. opadów
Wczoraj
Wysoka -- | Niska -- ° F
Precip. -- cali
5:58 AM 8:10 PM
Zmniejszający się sierp Księżyca, 11% visible
Ciśnienie 29.86 cali
Widzialność 6.2 mil
chmury Niewiele 3800 ft
Punkt rosy 48 ° F
Wilgotność 77%
Opady deszczu 0.00 cali
grubość pokrywy śnieżnej Niedostępne.
UV 0 z 12
Pyłki Niedostępne.
Jakość powietrza Niedostępne.
Flu Activity Niedostępne.
METAR EGLL 220150Z 23008KT 9999 FEW038 13/09 Q1011 NOSIG

More Conditions Fewer Conditions

Ciśnienie 29.86 cali
Widzialność 6.2 mil
chmury Niewiele 3800 ft
Punkt rosy 48 ° F
Wilgotność 77%
Opady deszczu 0.00 cali
grubość pokrywy śnieżnej Niedostępne.
UV 0 z 12
Pyłki Niedostępne.
Jakość powietrza Niedostępne.
Flu Activity Niedostępne.
METAR EGLL 220150Z 23008KT 9999 FEW038 13/09 Q1011 NOSIG

More Conditions Fewer Conditions

10-Day Weather Forecast

Almanac

Astronomia

Aug. 22, 2014 Wschód Zachów
Aktualny czas 05:58 BST 20:10 BST
Zmierzch cywilny 05:21 BST 20:46 BST
Zmierzch żeglarski 04:36 BST 21:31 BST
świt/zmierzch astronomiczny 03:43 BST 22:23 BST
Księżyc 02:58 BST 18:16 BST
całkowite oświetlenie 15h 24m
Długość dnia
14h 11m
Tomorrow will be 3m 42s shorter.
Zmniejszający się sierp Księżyca, 11% of the Moon is Illuminated
Sierpień 21
Zmniejszający się sierp Księżyca
Sierpień 25
Nowy
Wrzesień 2
Pierwsza kwadra
Wrzesień 8
Pełnia Księżyca
Wrzesień 15
Ostatnia kwadra

Wczorajsze ekstrema

Country Highs Country Lows

Community

WunderPhotos

Upload Photos

1,746,105 zdjęcia zostały przesłane!

WunderBlogs® & News

Nearby

Jakość powietrza

Not available.

Głębokość pokrywy śnieżnej

Not available.

Aktywność sejsmiczna

Miejscowość Distance Mag. Time & Date
No recent earthquake activity has been reported nearby.
Minimum magnitude displayed is 2.5.

Temperatury wody na wybrzeżu

Miejsce Temperatura
Nie znaleziono stacji

Najbliższa stacja pogodowa